Time;durP1;ratioP1;P1;durP2;ratioP2;P2;SDS_P1;SDS_P2;PMS_P1;PMS_P2;Temp;Humidity;BMP_temperature;BMP_pressure;BME280_temperature;BME280_humidity;BME280_pressure;Samples;Min_cycle;Max_cycle;Signal;HPM_P1;HPM_P2
2023/09/26 00:00:07;;;;;;;1.95;1.13;;;15.50;99.90;;;;;;5079756;28;20046;-73
2023/09/26 00:02:35;;;;;;;1.42;1.13;;;15.50;99.90;;;;;;5079118;28;20435;-73
2023/09/26 00:05:03;;;;;;;2.97;1.13;;;15.50;99.90;;;;;;5082941;28;20028;-73
2023/09/26 00:07:29;;;;;;;2.50;1.40;;;15.40;99.90;;;;;;5085437;28;20052;-73
2023/09/26 00:09:55;;;;;;;2.65;1.05;;;15.50;99.90;;;;;;5078817;28;20498;-73
2023/09/26 00:12:21;;;;;;;1.98;1.05;;;15.40;99.90;;;;;;5079743;28;20564;-74
2023/09/26 00:14:47;;;;;;;1.65;1.08;;;15.50;99.90;;;;;;5109885;27;20068;-74
2023/09/26 00:17:14;;;;;;;2.13;1.17;;;15.50;99.90;;;;;;5083231;28;20056;-73
2023/09/26 00:19:40;;;;;;;1.83;1.05;;;15.40;99.90;;;;;;5079546;28;20078;-73
2023/09/26 00:22:06;;;;;;;2.35;1.00;;;15.50;99.90;;;;;;5077992;28;20037;-73
2023/09/26 00:24:32;;;;;;;2.50;1.00;;;15.50;99.90;;;;;;5067304;28;20090;-73
2023/09/26 00:26:58;;;;;;;1.77;0.90;;;15.50;99.90;;;;;;5077901;28;20054;-73
2023/09/26 00:29:24;;;;;;;1.58;1.15;;;15.40;99.90;;;;;;5081178;28;20046;-73
2023/09/26 00:31:53;;;;;;;2.47;1.08;;;15.40;99.90;;;;;;5080196;28;20036;-73
2023/09/26 00:34:19;;;;;;;1.60;0.95;;;15.40;99.90;;;;;;5083818;28;20147;-73
2023/09/26 00:36:45;;;;;;;3.25;1.58;;;15.30;99.90;;;;;;5075966;28;20040;-73
2023/09/26 00:39:11;;;;;;;1.90;1.20;;;15.30;99.90;;;;;;5077088;28;20105;-73
2023/09/26 00:41:38;;;;;;;1.52;1.10;;;15.30;99.90;;;;;;5078308;28;20470;-72
2023/09/26 00:44:06;;;;;;;1.55;1.27;;;15.30;99.90;;;;;;5117600;27;20116;-73
2023/09/26 00:46:32;;;;;;;2.10;1.17;;;15.30;99.90;;;;;;5080605;28;20049;-73
2023/09/26 00:49:00;;;;;;;2.28;1.00;;;15.30;99.90;;;;;;5115598;27;20399;-73
2023/09/26 00:51:26;;;;;;;1.90;1.10;;;15.30;99.90;;;;;;5116398;27;20073;-73
2023/09/26 00:53:53;;;;;;;4.95;1.65;;;15.20;99.90;;;;;;5121250;27;20028;-73
2023/09/26 00:56:18;;;;;;;1.38;1.00;;;15.20;99.90;;;;;;5113814;27;20135;-73
2023/09/26 00:58:46;;;;;;;2.20;1.20;;;15.20;99.90;;;;;;5114368;27;20055;-73
2023/09/26 01:01:12;;;;;;;2.33;1.60;;;15.10;99.90;;;;;;5114190;27;20036;-73
2023/09/26 01:03:38;;;;;;;1.90;1.30;;;15.10;99.90;;;;;;5112805;27;20491;-73
2023/09/26 01:06:05;;;;;;;3.25;1.33;;;15.00;99.90;;;;;;5077604;28;20473;-73
2023/09/26 01:08:31;;;;;;;2.13;1.70;;;15.00;99.90;;;;;;5112628;27;20048;-73
2023/09/26 01:10:58;;;;;;;4.60;1.40;;;14.90;99.90;;;;;;5083199;28;20052;-73
2023/09/26 01:13:24;;;;;;;3.38;1.63;;;14.90;99.90;;;;;;5082138;28;20479;-73
2023/09/26 01:15:50;;;;;;;3.78;1.75;;;14.80;99.90;;;;;;5088138;28;20465;-73
2023/09/26 01:18:17;;;;;;;2.20;1.50;;;14.80;99.90;;;;;;5113082;27;20051;-73
2023/09/26 01:20:44;;;;;;;2.08;1.50;;;14.70;99.90;;;;;;5075805;28;20465;-73
2023/09/26 01:23:12;;;;;;;2.20;1.70;;;14.70;99.90;;;;;;5068141;28;20113;-73
2023/09/26 01:25:38;;;;;;;5.55;2.03;;;14.60;99.90;;;;;;5082554;28;20075;-73
2023/09/26 01:28:08;;;;;;;2.53;1.65;;;14.60;99.90;;;;;;5081140;28;20055;-73
2023/09/26 01:30:40;;;;;;;6.55;1.80;;;14.60;99.90;;;;;;5077486;28;20055;-73
2023/09/26 01:33:16;;;;;;;2.20;1.52;;;14.50;99.90;;;;;;5113152;27;20047;-73
2023/09/26 01:35:43;;;;;;;7.13;1.52;;;14.50;99.90;;;;;;5077374;28;20047;-73
2023/09/26 01:38:09;;;;;;;2.60;1.88;;;14.40;99.90;;;;;;5061081;28;20043;-72
2023/09/26 01:40:35;;;;;;;2.00;1.23;;;14.40;99.90;;;;;;5078318;28;20391;-73
2023/09/26 01:43:00;;;;;;;2.55;1.70;;;14.40;99.90;;;;;;5084913;28;20040;-73
2023/09/26 01:45:26;;;;;;;2.60;1.70;;;14.40;99.90;;;;;;5082576;28;20049;-73
2023/09/26 01:47:52;;;;;;;2.63;1.42;;;14.40;99.90;;;;;;5082084;28;20197;-73
2023/09/26 01:50:20;;;;;;;3.17;1.90;;;14.40;99.90;;;;;;5081206;28;20051;-73
2023/09/26 01:52:46;;;;;;;2.88;2.00;;;14.40;99.90;;;;;;5067130;28;20041;-73
2023/09/26 01:55:16;;;;;;;2.58;1.63;;;14.40;99.90;;;;;;5081518;28;20459;-73
2023/09/26 01:57:42;;;;;;;2.42;1.73;;;14.40;99.90;;;;;;5112354;28;20102;-72
2023/09/26 02:00:12;;;;;;;3.22;1.70;;;14.50;99.90;;;;;;5078526;28;20049;-73
2023/09/26 02:02:39;;;;;;;3.03;1.52;;;14.50;99.90;;;;;;5118405;27;20036;-73
2023/09/26 02:05:10;;;;;;;2.78;1.42;;;14.40;99.90;;;;;;5115823;28;20032;-73
2023/09/26 02:07:36;;;;;;;1.05;0.95;;;14.50;99.90;;;;;;5100883;28;20454;-72
2023/09/26 02:10:03;;;;;;;2.58;1.38;;;14.40;99.90;;;;;;5110569;27;20036;-73
2023/09/26 02:12:34;;;;;;;3.28;1.63;;;14.40;99.90;;;;;;5083564;28;20444;-72
2023/09/26 02:15:03;;;;;;;1.88;1.40;;;14.40;99.90;;;;;;5081223;28;20044;-72
2023/09/26 02:17:29;;;;;;;3.63;1.67;;;14.40;99.90;;;;;;5118273;28;20058;-72
2023/09/26 02:19:55;;;;;;;3.10;1.70;;;14.40;99.90;;;;;;5069105;28;20571;-72
2023/09/26 02:22:21;;;;;;;3.88;1.80;;;14.40;99.90;;;;;;5119832;28;20079;-73
2023/09/26 02:24:52;;;;;;;2.42;1.65;;;14.30;99.90;;;;;;5120991;28;20031;-73
2023/09/26 02:27:17;;;;;;;3.28;1.60;;;14.30;99.90;;;;;;5117713;28;20447;-72
2023/09/26 02:29:44;;;;;;;2.03;1.65;;;14.20;99.90;;;;;;5069397;28;20122;-72
2023/09/26 02:32:10;;;;;;;2.38;1.30;;;14.20;99.90;;;;;;5084685;28;20063;-72
2023/09/26 02:34:36;;;;;;;3.08;1.90;;;14.20;99.90;;;;;;5099204;28;20066;-73
2023/09/26 02:37:02;;;;;;;3.70;1.58;;;14.20;99.90;;;;;;5084108;28;20070;-73
2023/09/26 02:39:28;;;;;;;1.92;1.48;;;14.10;99.90;;;;;;5071868;28;20044;-73
2023/09/26 02:41:53;;;;;;;3.00;1.38;;;14.20;99.90;;;;;;5062833;28;20047;-72
2023/09/26 02:44:19;;;;;;;2.63;1.52;;;14.10;99.90;;;;;;5081329;28;20456;-73
2023/09/26 02:46:45;;;;;;;2.60;1.50;;;14.10;99.90;;;;;;5117012;27;20032;-73
2023/09/26 02:49:11;;;;;;;2.10;1.55;;;14.00;99.90;;;;;;5087423;28;20040;-73
2023/09/26 02:51:36;;;;;;;10.05;2.30;;;14.00;99.90;;;;;;5117991;27;20040;-73
2023/09/26 02:54:02;;;;;;;2.78;1.38;;;13.90;99.90;;;;;;5120642;27;20123;-72
2023/09/26 02:56:28;;;;;;;2.00;1.42;;;13.90;99.90;;;;;;5091235;27;20028;-72
2023/09/26 02:58:53;;;;;;;2.67;1.52;;;13.90;99.90;;;;;;5085555;28;20062;-72
2023/09/26 03:01:20;;;;;;;2.88;1.85;;;13.80;99.90;;;;;;5119053;27;20369;-73
2023/09/26 03:03:46;;;;;;;2.95;2.13;;;13.70;99.90;;;;;;5115486;27;20051;-73
2023/09/26 03:06:12;;;;;;;2.83;1.95;;;13.60;99.90;;;;;;5101399;28;20467;-73
2023/09/26 03:08:37;;;;;;;1.90;1.50;;;13.60;99.90;;;;;;5085339;28;20066;-73
2023/09/26 03:11:03;;;;;;;2.35;1.77;;;13.60;99.90;;;;;;5086263;28;20098;-72
2023/09/26 03:13:35;;;;;;;2.80;1.95;;;13.60;99.90;;;;;;5119252;27;20071;-73
2023/09/26 03:16:02;;;;;;;3.17;1.50;;;13.50;99.90;;;;;;5073422;28;20075;-72
2023/09/26 03:18:27;;;;;;;2.92;2.00;;;13.40;99.90;;;;;;5087666;28;20128;-72
2023/09/26 03:20:53;;;;;;;2.75;1.50;;;13.40;99.90;;;;;;5092180;28;20040;-72
2023/09/26 03:23:24;;;;;;;2.33;1.77;;;13.30;99.90;;;;;;5107375;28;20127;-72
2023/09/26 03:25:50;;;;;;;3.80;2.13;;;13.20;99.90;;;;;;5085397;28;20044;-72
2023/09/26 03:28:16;;;;;;;2.42;1.90;;;13.20;99.90;;;;;;5118327;27;20059;-73
2023/09/26 03:30:43;;;;;;;4.00;1.90;;;13.10;99.90;;;;;;5123707;27;20036;-73
2023/09/26 03:33:10;;;;;;;3.17;1.95;;;13.20;99.90;;;;;;5123777;27;20126;-73
2023/09/26 03:35:36;;;;;;;2.00;1.75;;;13.10;99.90;;;;;;5087232;28;20044;-72
2023/09/26 03:38:02;;;;;;;4.05;2.05;;;13.10;99.90;;;;;;5082857;28;20044;-72
2023/09/26 03:40:28;;;;;;;3.40;2.08;;;13.00;99.90;;;;;;5123858;27;20046;-72
2023/09/26 03:42:54;;;;;;;5.15;2.50;;;13.00;99.90;;;;;;5118793;27;20515;-72
2023/09/26 03:45:21;;;;;;;2.67;1.92;;;12.90;99.90;;;;;;5121463;27;20032;-72
2023/09/26 03:47:47;;;;;;;5.53;2.20;;;12.90;99.90;;;;;;5122796;27;20040;-73
2023/09/26 03:50:13;;;;;;;5.65;1.67;;;12.80;99.90;;;;;;5122132;27;20051;-72
2023/09/26 03:52:39;;;;;;;3.33;2.15;;;12.80;99.90;;;;;;5086502;28;20077;-72
2023/09/26 03:55:06;;;;;;;3.38;2.25;;;12.80;99.90;;;;;;5087052;28;20095;-74
2023/09/26 03:57:33;;;;;;;3.03;1.88;;;12.70;99.90;;;;;;5087524;28;20271;-73
2023/09/26 04:00:00;;;;;;;3.33;2.20;;;12.70;99.90;;;;;;5086510;28;20100;-73
2023/09/26 04:02:25;;;;;;;3.33;2.53;;;12.70;99.90;;;;;;5089920;28;20131;-73
2023/09/26 04:04:51;;;;;;;2.85;1.80;;;12.70;99.90;;;;;;5119599;27;20065;-73
2023/09/26 04:07:18;;;;;;;3.55;2.30;;;12.60;99.90;;;;;;5122048;27;20044;-73
2023/09/26 04:09:44;;;;;;;3.47;2.20;;;12.60;99.90;;;;;;5122985;27;20400;-73
2023/09/26 04:12:10;;;;;;;2.75;1.88;;;12.50;99.90;;;;;;5121192;27;20036;-73
2023/09/26 04:14:35;;;;;;;4.43;2.15;;;12.50;99.90;;;;;;5086977;28;20039;-73
2023/09/26 04:17:02;;;;;;;4.10;2.17;;;12.40;99.90;;;;;;5111803;28;20087;-73
2023/09/26 04:19:28;;;;;;;2.28;1.85;;;12.40;99.90;;;;;;5113043;28;20078;-73
2023/09/26 04:21:54;;;;;;;3.42;2.45;;;12.40;99.90;;;;;;5121590;27;20036;-73
2023/09/26 04:24:19;;;;;;;4.93;2.53;;;12.30;99.90;;;;;;5079299;28;20031;-73
2023/09/26 04:26:46;;;;;;;3.25;2.20;;;12.30;99.90;;;;;;5106430;28;20051;-73
2023/09/26 04:29:12;;;;;;;3.03;2.10;;;12.20;99.90;;;;;;5122461;27;20111;-73
2023/09/26 04:31:38;;;;;;;7.78;3.08;;;12.20;99.90;;;;;;5086843;28;20032;-73
2023/09/26 04:34:03;;;;;;;4.43;2.40;;;12.20;99.90;;;;;;5106836;28;20039;-73
2023/09/26 04:36:29;;;;;;;3.83;2.47;;;12.20;99.90;;;;;;5117776;27;20069;-73
2023/09/26 04:38:55;;;;;;;2.90;2.25;;;12.20;99.90;;;;;;5071204;28;20047;-73
2023/09/26 04:41:21;;;;;;;3.00;2.03;;;12.20;99.90;;;;;;5111910;27;20032;-72
2023/09/26 04:43:47;;;;;;;3.55;2.67;;;12.10;99.90;;;;;;5119443;27;20047;-72
2023/09/26 04:46:16;;;;;;;4.07;2.85;;;12.20;99.90;;;;;;5122717;27;20351;-73
2023/09/26 04:48:43;;;;;;;3.80;2.53;;;12.10;99.90;;;;;;5084617;28;20098;-73
2023/09/26 04:51:11;;;;;;;2.60;2.40;;;12.10;99.90;;;;;;5051176;28;20830;-73
2023/09/26 04:53:37;;;;;;;3.17;2.08;;;12.00;99.90;;;;;;5123734;27;20059;-72
2023/09/26 04:56:03;;;;;;;3.70;2.42;;;12.00;99.90;;;;;;5122065;27;20656;-73
2023/09/26 04:58:32;;;;;;;7.28;3.25;;;12.00;99.90;;;;;;5104076;28;20044;-73
2023/09/26 05:01:00;;;;;;;2.83;2.10;;;12.00;99.90;;;;;;5088689;28;20031;-73
2023/09/26 05:03:27;;;;;;;2.33;2.13;;;12.00;99.90;;;;;;5085197;28;20028;-73
2023/09/26 05:05:53;;;;;;;3.45;2.45;;;12.00;99.90;;;;;;5117357;27;20043;-72
2023/09/26 05:08:19;;;;;;;2.95;2.17;;;11.90;99.90;;;;;;5100499;28;20144;-73
2023/09/26 05:10:48;;;;;;;2.10;1.90;;;11.90;99.90;;;;;;5118317;27;20087;-73
2023/09/26 05:13:14;;;;;;;4.00;2.58;;;11.90;99.90;;;;;;5089340;28;20452;-73
2023/09/26 05:15:40;;;;;;;3.90;2.80;;;11.90;99.90;;;;;;5120009;27;20052;-73
2023/09/26 05:18:06;;;;;;;2.92;2.53;;;11.90;99.90;;;;;;5090200;28;20392;-72
2023/09/26 05:20:32;;;;;;;4.90;2.85;;;11.90;99.90;;;;;;5118700;27;20143;-72
2023/09/26 05:23:00;;;;;;;5.10;2.90;;;11.80;99.90;;;;;;5122386;27;20118;-73
2023/09/26 05:25:26;;;;;;;2.92;2.22;;;11.90;99.90;;;;;;5120419;27;20498;-72
2023/09/26 05:27:52;;;;;;;3.15;2.15;;;11.80;99.90;;;;;;5090068;28;20040;-73
2023/09/26 05:30:17;;;;;;;5.43;2.92;;;11.80;99.90;;;;;;5115149;27;20081;-73
2023/09/26 05:32:43;;;;;;;3.05;2.63;;;11.70;99.90;;;;;;5090037;28;20055;-73
2023/09/26 05:35:09;;;;;;;3.17;2.00;;;11.80;99.90;;;;;;5119091;27;20028;-73
2023/09/26 05:37:36;;;;;;;3.22;2.53;;;11.80;99.90;;;;;;5086218;28;20532;-73
2023/09/26 05:40:09;;;;;;;3.35;2.45;;;11.70;99.90;;;;;;5066098;28;20027;-72
2023/09/26 05:42:35;;;;;;;3.83;2.58;;;11.70;99.90;;;;;;5104826;28;20036;-73
2023/09/26 05:45:02;;;;;;;4.38;3.05;;;11.80;99.90;;;;;;5094962;28;20036;-73
2023/09/26 05:47:28;;;;;;;2.45;2.08;;;11.80;99.90;;;;;;5097453;28;20116;-73
2023/09/26 05:49:54;;;;;;;2.65;2.38;;;11.80;99.90;;;;;;5096933;28;20039;-73
2023/09/26 05:52:22;;;;;;;3.10;2.53;;;11.80;99.90;;;;;;5121981;28;20036;-73
2023/09/26 05:54:48;;;;;;;4.57;2.75;;;11.80;99.90;;;;;;5091770;28;20079;-73
2023/09/26 05:57:14;;;;;;;2.35;2.15;;;11.80;99.90;;;;;;5094831;28;20048;-73
2023/09/26 05:59:40;;;;;;;8.05;2.33;;;11.90;99.90;;;;;;5125310;28;20040;-73
2023/09/26 06:02:12;;;;;;;4.80;2.67;;;11.90;99.90;;;;;;5089856;28;20067;-73
2023/09/26 06:04:44;;;;;;;2.70;2.13;;;11.90;99.90;;;;;;5112744;28;20056;-73
2023/09/26 06:07:10;;;;;;;4.15;2.58;;;12.00;99.90;;;;;;5091905;28;20074;-73
2023/09/26 06:09:37;;;;;;;6.13;2.75;;;12.00;99.90;;;;;;5118010;28;20047;-71
2023/09/26 06:12:06;;;;;;;2.85;2.42;;;12.10;99.90;;;;;;5094431;28;20036;-73
2023/09/26 06:14:34;;;;;;;2.40;1.95;;;12.20;99.90;;;;;;5130707;28;20091;-73
2023/09/26 06:17:00;;;;;;;3.80;2.08;;;12.20;99.90;;;;;;5081559;28;20094;-73
2023/09/26 06:19:25;;;;;;;2.40;2.03;;;12.20;99.90;;;;;;5105297;28;20031;-73
2023/09/26 06:21:51;;;;;;;2.88;2.25;;;12.30;99.90;;;;;;5123941;28;20035;-73
2023/09/26 06:24:17;;;;;;;4.70;2.33;;;12.30;99.90;;;;;;5137631;27;20043;-73
2023/09/26 06:26:43;;;;;;;9.00;2.80;;;12.40;99.90;;;;;;5138102;27;20038;-73
2023/09/26 06:29:08;;;;;;;3.75;2.40;;;12.40;99.90;;;;;;5085277;28;20046;-73
2023/09/26 06:31:34;;;;;;;3.33;2.17;;;12.50;99.90;;;;;;5137943;27;20051;-71
2023/09/26 06:34:01;;;;;;;2.70;2.00;;;12.50;99.90;;;;;;5098510;28;20040;-72
2023/09/26 06:36:31;;;;;;;3.33;2.67;;;12.50;99.90;;;;;;5132694;27;20036;-72
2023/09/26 06:38:57;;;;;;;3.88;2.25;;;12.60;99.90;;;;;;5104030;28;20050;-72
2023/09/26 06:41:24;;;;;;;4.07;2.55;;;12.70;99.90;;;;;;5101779;28;20040;-73
2023/09/26 06:43:50;;;;;;;3.20;2.40;;;12.70;99.90;;;;;;5101510;28;20051;-72
2023/09/26 06:46:15;;;;;;;3.85;2.33;;;12.80;99.90;;;;;;5141309;27;20036;-72
2023/09/26 06:48:42;;;;;;;3.42;2.22;;;12.80;99.90;;;;;;5136597;27;20044;-72
2023/09/26 06:51:08;;;;;;;3.97;2.42;;;12.90;99.90;;;;;;5103618;28;20067;-72
2023/09/26 06:53:35;;;;;;;3.95;2.10;;;13.00;99.90;;;;;;5105764;28;20099;-72
2023/09/26 06:56:05;;;;;;;2.80;2.10;;;13.10;99.90;;;;;;5101498;28;20043;-72
2023/09/26 06:58:31;;;;;;;3.80;2.47;;;13.10;99.90;;;;;;5137819;27;20080;-73
2023/09/26 07:00:57;;;;;;;4.82;2.38;;;13.20;99.90;;;;;;5104219;28;20068;-73
2023/09/26 07:03:27;;;;;;;2.95;2.30;;;13.30;99.90;;;;;;5135710;27;20039;-73
2023/09/26 07:05:53;;;;;;;2.50;1.95;;;13.40;99.90;;;;;;5137801;27;20066;-72
2023/09/26 07:08:19;;;;;;;3.30;1.90;;;13.50;99.90;;;;;;5105888;28;20051;-73
2023/09/26 07:10:46;;;;;;;2.53;2.08;;;13.60;99.90;;;;;;5139075;27;20082;-73
2023/09/26 07:13:13;;;;;;;3.95;1.98;;;13.70;99.90;;;;;;5102169;28;20042;-73
2023/09/26 07:15:42;;;;;;;3.03;2.53;;;13.80;99.90;;;;;;5137927;27;20059;-73
2023/09/26 07:18:09;;;;;;;3.55;2.42;;;13.90;99.90;;;;;;5113390;28;20070;-73
2023/09/26 07:20:36;;;;;;;3.47;2.08;;;14.00;99.90;;;;;;5140070;27;20035;-73
2023/09/26 07:23:03;;;;;;;2.53;2.28;;;14.10;99.90;;;;;;5117431;28;20567;-73
2023/09/26 07:25:29;;;;;;;2.35;1.95;;;14.30;99.90;;;;;;5104570;28;20046;-73
2023/09/26 07:27:55;;;;;;;5.45;2.00;;;14.30;99.90;;;;;;5116812;28;20040;-72
2023/09/26 07:30:21;;;;;;;2.78;2.28;;;14.40;99.90;;;;;;5099474;28;20046;-73
2023/09/26 07:32:47;;;;;;;3.45;2.00;;;14.50;99.90;;;;;;5117865;28;20120;-73
2023/09/26 07:35:13;;;;;;;3.60;2.28;;;14.60;99.90;;;;;;5139989;27;20039;-73
2023/09/26 07:37:39;;;;;;;2.58;2.00;;;14.90;99.90;;;;;;5100069;28;20061;-71
2023/09/26 07:40:08;;;;;;;3.00;2.28;;;15.20;99.90;;;;;;5101278;28;20048;-72
2023/09/26 07:42:35;;;;;;;3.95;2.25;;;15.40;99.90;;;;;;5134268;27;20087;-73
2023/09/26 07:45:01;;;;;;;3.80;2.30;;;15.50;99.90;;;;;;5100080;28;20038;-72
2023/09/26 07:47:27;;;;;;;1.73;1.40;;;15.70;99.90;;;;;;5141204;27;20043;-72
2023/09/26 07:49:53;;;;;;;4.85;2.28;;;15.90;99.90;;;;;;5137283;27;20054;-72
2023/09/26 07:52:19;;;;;;;4.75;2.45;;;16.40;99.90;;;;;;5099762;28;20039;-72
2023/09/26 07:54:45;;;;;;;2.35;1.52;;;16.90;99.90;;;;;;5092711;28;20040;-72
2023/09/26 07:57:11;;;;;;;2.53;2.08;;;17.50;99.90;;;;;;5136250;27;20067;-72
2023/09/26 07:59:38;;;;;;;3.78;1.75;;;17.90;99.90;;;;;;5100134;28;20123;-73
2023/09/26 08:02:03;;;;;;;3.50;1.70;;;18.20;99.90;;;;;;5100853;28;20046;-72
2023/09/26 08:04:29;;;;;;;4.00;1.73;;;18.30;99.90;;;;;;5099474;28;20040;-73
2023/09/26 08:06:55;;;;;;;2.70;2.08;;;18.30;99.90;;;;;;5113618;28;20082;-72
2023/09/26 08:09:20;;;;;;;1.60;1.05;;;18.30;99.90;;;;;;5091032;28;20062;-72
2023/09/26 08:11:46;;;;;;;3.00;1.67;;;18.10;99.90;;;;;;5092858;28;20472;-73
2023/09/26 08:14:12;;;;;;;3.75;1.67;;;18.00;99.90;;;;;;5099984;28;20165;-72
2023/09/26 08:16:38;;;;;;;3.13;1.58;;;17.80;99.90;;;;;;5093191;28;20047;-72
2023/09/26 08:19:03;;;;;;;2.20;1.52;;;17.80;99.90;;;;;;5094651;28;20036;-73
2023/09/26 08:21:29;;;;;;;2.47;1.40;;;17.70;99.90;;;;;;5092606;28;20039;-72
2023/09/26 08:23:56;;;;;;;2.50;1.42;;;17.70;99.90;;;;;;5123376;27;20040;-72
2023/09/26 08:26:22;;;;;;;4.15;1.85;;;17.60;99.90;;;;;;5089012;28;20036;-73
2023/09/26 08:28:47;;;;;;;3.08;1.83;;;17.60;99.90;;;;;;5091918;28;20107;-73
2023/09/26 08:31:15;;;;;;;2.20;1.42;;;17.60;99.90;;;;;;5078045;28;20095;-73
2023/09/26 08:33:43;;;;;;;4.28;1.67;;;17.50;99.90;;;;;;5126974;27;20076;-73
2023/09/26 08:36:21;;;;;;;1.65;1.08;;;17.50;99.90;;;;;;5088320;28;20119;-73
2023/09/26 08:38:50;;;;;;;2.97;1.60;;;17.50;99.90;;;;;;5131114;27;20031;-73
2023/09/26 08:41:17;;;;;;;2.08;1.33;;;17.50;99.90;;;;;;5093389;28;20067;-73
2023/09/26 08:43:44;;;;;;;6.40;1.55;;;17.50;99.90;;;;;;5092459;28;20069;-73
2023/09/26 08:46:10;;;;;;;3.50;1.35;;;17.50;99.90;;;;;;5093339;28;20039;-72
2023/09/26 08:48:37;;;;;;;4.38;1.60;;;17.50;99.90;;;;;;5094566;28;20027;-73
2023/09/26 08:51:03;;;;;;;3.42;1.58;;;17.50;99.90;;;;;;5122844;27;20032;-72
2023/09/26 08:53:29;;;;;;;2.13;1.30;;;17.60;99.90;;;;;;5087338;28;20454;-72
2023/09/26 08:55:55;;;;;;;2.58;1.60;;;17.70;99.90;;;;;;5123397;27;20534;-72
2023/09/26 08:58:21;;;;;;;2.28;1.50;;;17.70;99.90;;;;;;5123261;27;20036;-72
2023/09/26 09:00:47;;;;;;;3.90;1.45;;;17.70;99.90;;;;;;5094426;28;20080;-73
2023/09/26 09:03:13;;;;;;;3.10;1.92;;;17.60;99.90;;;;;;5067438;28;20073;-73
2023/09/26 09:05:40;;;;;;;1.52;1.17;;;17.70;99.90;;;;;;5091328;28;20368;-73
2023/09/26 09:08:08;;;;;;;2.97;1.55;;;17.70;99.90;;;;;;5109140;28;20046;-73
2023/09/26 09:10:54;;;;;;;3.38;1.40;;;17.80;99.90;;;;;;5089530;28;20695;-73
2023/09/26 09:13:34;;;;;;;2.60;1.67;;;18.10;99.90;;;;;;5122038;27;20035;-72
2023/09/26 09:16:14;;;;;;;2.28;0.88;;;18.50;99.90;;;;;;5125895;27;20093;-73
2023/09/26 09:18:43;;;;;;;3.08;1.42;;;18.90;99.90;;;;;;5081949;28;20044;-73
2023/09/26 09:21:27;;;;;;;2.47;1.80;;;19.50;99.90;;;;;;5105902;28;20146;-73
2023/09/26 09:23:55;;;;;;;1.85;0.98;;;20.10;99.90;;;;;;5120739;27;20539;-73
2023/09/26 09:26:24;;;;;;;1.40;1.08;;;20.50;99.90;;;;;;5121946;27;20471;-74
2023/09/26 09:28:56;;;;;;;1.42;1.15;;;21.10;99.90;;;;;;5087604;28;20663;-74
2023/09/26 09:31:22;;;;;;;3.67;1.30;;;21.50;99.90;;;;;;5070071;28;20129;-74
2023/09/26 09:33:52;;;;;;;1.95;1.35;;;21.80;99.90;;;;;;5088920;28;20040;-74
2023/09/26 09:36:19;;;;;;;2.65;1.17;;;22.20;99.90;;;;;;5090824;28;20039;-74
2023/09/26 09:38:44;;;;;;;3.13;1.50;;;23.00;99.90;;;;;;5121391;27;20046;-74
2023/09/26 09:41:10;;;;;;;2.03;1.23;;;23.30;99.90;;;;;;5088602;28;20028;-74
2023/09/26 09:43:37;;;;;;;1.95;1.17;;;23.50;99.90;;;;;;5088650;28;20034;-74
2023/09/26 09:46:10;;;;;;;2.92;1.50;;;23.60;99.90;;;;;;5090092;28;20065;-74
2023/09/26 09:48:42;;;;;;;2.85;1.20;;;23.50;99.90;;;;;;5085168;28;20396;-74
2023/09/26 09:51:11;;;;;;;4.53;1.52;;;23.70;99.90;;;;;;5086711;28;20036;-74
2023/09/26 09:53:40;;;;;;;1.88;1.08;;;23.90;99.90;;;;;;5091094;28;20048;-74
2023/09/26 09:56:07;;;;;;;3.13;1.10;;;23.90;99.90;;;;;;5087963;28;20043;-74
2023/09/26 09:58:38;;;;;;;2.70;1.20;;;23.80;99.90;;;;;;5123111;27;20040;-74
2023/09/26 10:01:05;;;;;;;7.45;1.15;;;23.50;99.90;;;;;;5090483;28;20130;-74
2023/09/26 10:03:33;;;;;;;2.05;1.23;;;23.20;99.90;;;;;;5074628;28;20027;-74
2023/09/26 10:05:59;;;;;;;1.35;0.90;;;22.90;99.90;;;;;;5074042;28;20096;-74
2023/09/26 10:08:26;;;;;;;4.72;0.95;;;22.60;99.90;;;;;;5122363;27;20047;-74
2023/09/26 10:10:54;;;;;;;2.50;1.23;;;22.20;99.90;;;;;;5122513;27;20048;-74
2023/09/26 10:13:21;;;;;;;2.00;0.90;;;21.70;99.90;;;;;;5087918;28;20039;-73
2023/09/26 10:16:05;;;;;;;4.70;1.02;;;21.50;99.90;;;;;;5123568;27;20440;-73
2023/09/26 10:18:33;;;;;;;2.95;1.25;;;21.40;99.90;;;;;;5087024;28;20044;-73
2023/09/26 10:20:59;;;;;;;2.13;1.00;;;21.40;99.90;;;;;;5087691;28;20035;-73
2023/09/26 10:23:24;;;;;;;1.55;0.90;;;21.50;99.90;;;;;;5122137;27;20031;-73
2023/09/26 10:25:50;;;;;;;2.00;1.13;;;21.50;99.90;;;;;;5089150;28;20028;-73
2023/09/26 10:28:16;;;;;;;3.47;1.17;;;21.70;99.90;;;;;;5088747;28;20149;-73
2023/09/26 10:30:46;;;;;;;2.08;1.05;;;21.70;99.90;;;;;;5121436;27;20089;-73
2023/09/26 10:33:13;;;;;;;1.35;0.65;;;21.60;99.90;;;;;;5123768;27;20070;-73
2023/09/26 10:35:45;;;;;;;2.97;0.80;;;21.50;99.90;;;;;;5093518;28;20047;-73
2023/09/26 10:38:19;;;;;;;1.38;1.00;;;21.40;99.90;;;;;;5086658;28;20387;-73
2023/09/26 10:40:46;;;;;;;1.70;1.10;;;21.40;99.90;;;;;;5087301;28;20506;-73
2023/09/26 10:43:12;;;;;;;1.67;0.77;;;21.20;99.90;;;;;;5121086;27;20040;-73
2023/09/26 10:45:43;;;;;;;1.92;0.93;;;21.10;99.90;;;;;;5083945;28;20065;-73
2023/09/26 10:48:08;;;;;;;2.22;0.80;;;21.10;99.90;;;;;;5093192;28;20051;-73
2023/09/26 10:50:34;;;;;;;2.78;1.05;;;21.10;99.90;;;;;;5076000;28;20031;-73
2023/09/26 10:53:00;;;;;;;1.88;1.00;;;21.00;99.90;;;;;;5120651;27;20168;-73
2023/09/26 10:55:26;;;;;;;2.85;1.50;;;21.00;99.90;;;;;;5102667;28;20036;-73
2023/09/26 10:57:51;;;;;;;2.78;1.20;;;21.00;99.90;;;;;;5089051;28;20071;-72
2023/09/26 11:00:18;;;;;;;2.15;0.82;;;21.00;99.90;;;;;;5085072;28;20074;-72
2023/09/26 11:02:47;;;;;;;1.90;1.10;;;21.20;99.90;;;;;;5124449;27;20054;-73
2023/09/26 11:05:14;;;;;;;5.40;1.50;;;21.40;99.90;;;;;;5086750;28;20523;-73
2023/09/26 11:07:42;;;;;;;1.75;1.17;;;21.40;99.90;;;;;;5117748;27;20063;-73
2023/09/26 11:10:13;;;;;;;3.80;1.17;;;21.40;99.90;;;;;;5085140;28;20036;-73
2023/09/26 11:12:39;;;;;;;7.00;1.30;;;21.40;99.90;;;;;;5080839;28;20434;-72
2023/09/26 11:15:05;;;;;;;2.42;1.55;;;21.40;99.90;;;;;;5090821;28;20042;-72
2023/09/26 11:17:35;;;;;;;3.33;1.20;;;21.40;99.90;;;;;;5067308;28;20112;-72
2023/09/26 11:20:05;;;;;;;3.97;1.40;;;21.40;99.90;;;;;;5118534;27;20052;-71
2023/09/26 11:22:42;;;;;;;2.67;1.58;;;21.40;99.90;;;;;;5069388;28;20124;-72
2023/09/26 11:25:08;;;;;;;5.05;1.40;;;21.30;99.90;;;;;;5076304;28;20082;-71
2023/09/26 11:27:41;;;;;;;1.77;1.25;;;21.30;99.90;;;;;;5102567;28;20192;-71
2023/09/26 11:30:12;;;;;;;2.58;1.23;;;21.20;99.90;;;;;;5086735;28;20077;-72
2023/09/26 11:32:39;;;;;;;3.40;1.38;;;21.20;99.90;;;;;;5067969;28;20472;-72
2023/09/26 11:35:06;;;;;;;2.85;1.67;;;21.30;99.90;;;;;;5085295;28;20047;-71
2023/09/26 11:37:32;;;;;;;1.98;1.10;;;21.60;99.90;;;;;;5083497;28;20138;-72
2023/09/26 11:39:58;;;;;;;2.30;1.20;;;21.70;99.90;;;;;;5084882;28;20070;-72
2023/09/26 11:42:24;;;;;;;2.55;1.60;;;21.90;99.90;;;;;;5081100;28;20059;-72
2023/09/26 11:44:54;;;;;;;1.95;1.08;;;22.00;99.90;;;;;;5117530;27;20042;-72
2023/09/26 11:47:21;;;;;;;1.55;0.95;;;22.00;99.90;;;;;;5098005;28;20027;-72
2023/09/26 11:49:48;;;;;;;9.40;1.75;;;22.00;99.90;;;;;;5099705;28;20043;-72
2023/09/26 11:52:14;;;;;;;1.40;1.00;;;21.80;99.90;;;;;;5086103;28;20038;-72
2023/09/26 11:54:40;;;;;;;2.22;1.25;;;21.80;99.90;;;;;;5067777;28;20031;-72
2023/09/26 11:57:06;;;;;;;2.53;1.20;;;21.70;99.90;;;;;;5122361;27;20340;-72
2023/09/26 11:59:32;;;;;;;1.85;1.20;;;21.80;99.90;;;;;;5118129;27;20476;-72
2023/09/26 12:02:00;;;;;;;1.85;1.23;;;22.10;99.90;;;;;;5066444;28;20058;-72
2023/09/26 12:04:26;;;;;;;2.58;1.52;;;22.40;99.90;;;;;;5098204;28;20699;-72
2023/09/26 12:06:52;;;;;;;1.73;1.17;;;22.60;99.90;;;;;;5086539;28;20046;-72
2023/09/26 12:09:20;;;;;;;1.80;1.30;;;22.80;99.90;;;;;;5115531;27;20245;-72
2023/09/26 12:11:51;;;;;;;3.38;1.25;;;22.80;99.90;;;;;;5118607;27;20054;-72
2023/09/26 12:14:17;;;;;;;2.38;1.50;;;22.80;99.90;;;;;;5086338;28;20059;-74
2023/09/26 12:16:44;;;;;;;2.50;1.23;;;22.50;99.90;;;;;;5096984;28;20063;-74
2023/09/26 12:19:12;;;;;;;2.13;0.93;;;22.30;99.90;;;;;;5089453;28;20040;-74
2023/09/26 12:21:38;;;;;;;4.70;1.35;;;22.20;99.90;;;;;;5085553;28;20074;-75
2023/09/26 12:24:04;;;;;;;1.63;1.00;;;22.10;99.90;;;;;;5128069;27;20044;-74
2023/09/26 12:26:29;;;;;;;2.00;0.98;;;22.00;99.90;;;;;;5117209;28;20085;-75
2023/09/26 12:28:55;;;;;;;2.78;1.50;;;22.00;99.90;;;;;;5096485;28;20047;-75
2023/09/26 12:31:21;;;;;;;2.90;1.52;;;22.10;99.90;;;;;;5133523;27;20039;-75
2023/09/26 12:33:47;;;;;;;2.28;1.00;;;22.50;99.90;;;;;;5092745;28;20047;-75
2023/09/26 12:36:12;;;;;;;2.08;1.33;;;23.00;99.90;;;;;;5097206;28;20050;-75
2023/09/26 12:38:40;;;;;;;4.63;1.45;;;23.40;99.90;;;;;;5095181;28;20040;-74
2023/09/26 12:41:06;;;;;;;3.53;1.35;;;24.10;99.90;;;;;;5133457;27;20051;-75
2023/09/26 12:43:33;;;;;;;3.10;1.58;;;25.00;99.90;;;;;;5080948;28;20043;-75
2023/09/26 12:45:58;;;;;;;2.45;1.05;;;25.30;99.90;;;;;;5133713;27;20105;-76